Flight Track Log - Related Links

Times and Time Zones

All times are in EDT time to prevent confusion due to time zone crossing. See the UAL139 flight status page for this flight to view local times or setup timezone preferences in your user account.

Time Position Orientation Groundspeed Altitude Reporting Facility
EDT Latitude Longitude Course Direction KTS MPH feet Rate Location/Type
Tue 05:25:45 PM 39.8930 -104.6960 293° West 180 207 6,400  Level FlightAware ADS-B
Tue 05:26:06 PM 39.9110 -104.6960 360° North 206 237 6,800 1,125 Climbing FlightAware ADS-B
Tue 05:26:49 PM 39.9590 -104.7080 349° North 270 311 7,600 1,793 Climbing FlightAware ADS-B
Tue 05:27:33 PM 40.0160 -104.7240 348° North 280 322 9,400 2,000 Climbing FlightAware ADS-B
Tue 05:28:01 PM 40.0510 -104.7350 346° North 287 330 10,000 1,241 Climbing FlightAware ADS-B
Tue 05:28:31 PM 40.0910 -104.7530 341° North 312 359 10,600 1,452 Climbing FlightAware ADS-B
Tue 05:29:03 PM 40.1360 -104.7740 340° North 343 395 11,500 1,625 Climbing FlightAware ADS-B
Tue 05:30:07 PM 40.2420 -104.8230 341° North 398 458 13,200 1,952 Climbing FlightAware ADS-B
Tue 05:31:09 PM 40.3510 -104.8740 340° North 417 480 15,600 2,316 Climbing FlightAware ADS-B
Tue 05:32:01 PM 40.4490 -104.9200 340° North 432 497 17,600 2,211 Climbing FlightAware ADS-B
Tue 05:33:03 PM 40.5660 -104.9750 340° North 447 514 19,800 2,050 Climbing FlightAware ADS-B
Tue 05:34:01 PM 40.6820 -105.0290 341° North 457 526 21,700 1,902 Climbing FlightAware ADS-B
Tue 05:34:25 PM 40.7290 -105.0520 340° North 461 531 22,400 1,875 Climbing FlightAware ADS-B
Tue 05:35:05 PM 40.8010 -105.1090 329° Northwest 452 520 23,700 1,808 Climbing FlightAware ADS-B
Tue 05:35:38 PM 40.8560 -105.1700 320° Northwest 458 527 24,600 1,569 Climbing FlightAware ADS-B
Tue 05:36:10 PM 40.9090 -105.2260 321° Northwest 470 541 25,400 1,519 Climbing FlightAware ADS-B
Tue 05:36:57 PM 40.9910 -105.3080 323° Northwest 478 550 26,600 1,651 Climbing FlightAware ADS-B
Tue 05:37:59 PM 41.0990 -105.4180 323° Northwest 481 554 28,400 1,648 Climbing FlightAware ADS-B
Tue 05:38:28 PM 41.1490 -105.4700 322° Northwest 486 559 29,100 1,324 Climbing FlightAware ADS-B
Tue 05:39:07 PM 41.2200 -105.5440 322° Northwest 489 563 29,900 1,352 Climbing FlightAware ADS-B
Tue 05:39:39 PM 41.2760 -105.6020 322° Northwest 483 556 30,700 1,714 Climbing FlightAware ADS-B
Tue 05:40:10 PM 41.3300 -105.6590 322° Northwest 479 551 31,700 1,733 Climbing FlightAware ADS-B
Tue 05:41:09 PM 41.4330 -105.7660 322° Northwest 470 541 33,300 1,434 Climbing FlightAware ADS-B
Tue 05:42:03 PM 41.5260 -105.8640 322° Northwest 475 547 34,400 1,239 Climbing FlightAware ADS-B
Tue 05:42:41 PM 41.5900 -105.9320 322° Northwest 474 545 35,200 1,174 Climbing FlightAware ADS-B
Tue 05:43:35 PM 41.6850 -106.0300 322° Northwest 477 549 36,200 933 Climbing FlightAware ADS-B
Tue 05:44:11 PM 41.7470 -106.0960 322° Northwest 481 554 36,600 750 Climbing FlightAware ADS-B
Tue 05:44:47 PM 41.8090 -106.1610 322° Northwest 478 550 37,100 717 Climbing FlightAware ADS-B
Tue 05:45:43 PM 41.9070 -106.2660 321° Northwest 484 557 37,700 488 Climbing FlightAware ADS-B
Tue 05:46:13 PM 41.9600 -106.3230 321° Northwest 491 565 37,800 228 Climbing FlightAware ADS-B
Tue 05:47:02 PM 42.0400 -106.4090 321° Northwest 491 565 38,000 110 Climbing FlightAware ADS-B
Tue 05:48:02 PM 42.1300 -106.5070 321° Northwest 491 565 38,000  Level FlightAware ADS-B
Tue 05:49:05 PM 42.2240 -106.6110 321° Northwest 491 565 38,000  Level FlightAware ADS-B
Tue 05:49:41 PM 42.2780 -106.6700 321° Northwest 491 565 38,000  Level FlightAware ADS-B
Tue 05:50:42 PM 42.3700 -106.7700 321° Northwest 491 565 38,000  Level FlightAware ADS-B
Tue 05:50:54 PM 42.3880 -106.7900 321° Northwest 491 565 38,000  Level FlightAware ADS-B
Tue 05:52:04 PM 42.4930 -106.9050 321° Northwest 491 565 38,000  Level FlightAware ADS-B
Tue 05:52:41 PM 42.5490 -106.9660 321° Northwest 491 565 38,000  Level FlightAware ADS-B
Tue 05:53:30 PM 42.6220 -107.0470 321° Northwest 491 565 38,000  Level FlightAware ADS-B
Tue 05:54:17 PM 42.6930 -107.1250 321° Northwest 491 565 38,000  Level FlightAware ADS-B
Tue 05:55:15 PM 42.7800 -107.2210 321° Northwest 491 565 38,000  Level FlightAware ADS-B
Tue 05:56:15 PM 42.8700 -107.3200 321° Northwest 491 565 38,000  Level FlightAware ADS-B
Tue 05:56:27 PM 42.8880 -107.3400 321° Northwest 491 565 38,000  Level FlightAware ADS-B
Tue 05:57:04 PM 43.1119 -107.5853 321° Northwest 496 571 38,000  Level Denver Center
Tue 05:57:54 PM 43.1975 -107.6825 320° Northwest 499 574 38,000  Level Salt Lake Center
Tue 06:03:11 PM 43.7740 -108.3380 320° Northwest 497 572 38,000  Level FlightAware ADS-B
Tue 06:04:02 PM 43.8650 -108.4430 320° Northwest 498 573 38,000  Level FlightAware ADS-B
Tue 06:04:50 PM 43.9470 -108.5380 320° Northwest 496 571 38,000  Level FlightAware ADS-B
Tue 06:05:26 PM 44.0110 -108.6130 320° Northwest 497 572 38,000  Level FlightAware ADS-B
Tue 06:06:29 PM 44.1240 -108.7460 320° Northwest 506 582 38,000  Level FlightAware ADS-B
Tue 06:07:29 PM 44.2340 -108.8750 320° Northwest 509 586 38,000  Level FlightAware ADS-B
Tue 06:07:59 PM 44.2860 -108.9370 320° Northwest 510 587 38,000  Level FlightAware ADS-B
Tue 06:08:34 PM 44.3500 -109.0120 320° Northwest 510 587 38,000  Level FlightAware ADS-B
Tue 06:09:02 PM 44.4010 -109.0720 320° Northwest 509 586 38,000  Level FlightAware ADS-B
Tue 06:10:03 PM 44.5090 -109.2010 320° Northwest 505 581 38,000  Level FlightAware ADS-B
Tue 06:10:53 PM 44.5970 -109.3080 319° Northwest 502 578 38,000  Level FlightAware ADS-B
Tue 06:11:38 PM 44.6770 -109.4030 320° Northwest 498 573 38,000  Level FlightAware ADS-B
Tue 06:12:25 PM 44.7580 -109.5020 319° Northwest 494 568 38,000  Level FlightAware ADS-B
Tue 06:13:17 PM 44.8470 -109.6090 320° Northwest 494 568 38,000  Level FlightAware ADS-B
Tue 06:13:48 PM 44.9010 -109.6750 319° Northwest 493 567 38,000  Level FlightAware ADS-B
Tue 06:14:23 PM 44.9620 -109.7490 319° Northwest 496 571 38,000  Level FlightAware ADS-B
Tue 06:14:57 PM 45.0210 -109.8210 319° Northwest 497 572 38,000  Level FlightAware ADS-B
Tue 06:15:33 PM 45.0820 -109.8960 319° Northwest 498 573 38,000  Level FlightAware ADS-B
Tue 06:16:18 PM 45.1610 -109.9930 319° Northwest 501 577 38,000  Level FlightAware ADS-B
Tue 06:17:12 PM 45.2570 -110.1120 319° Northwest 503 579 38,000  Level FlightAware ADS-B
Tue 06:18:06 PM 45.3500 -110.2270 319° Northwest 504 580 38,000  Level FlightAware ADS-B
Tue 06:19:07 PM 45.4580 -110.3630 319° Northwest 503 579 38,000  Level FlightAware ADS-B
Tue 06:20:03 PM 45.5560 -110.4840 319° Northwest 501 577 38,000  Level FlightAware ADS-B
Tue 06:20:35 PM 45.6110 -110.5540 318° Northwest 502 578 38,000  Level FlightAware ADS-B
Tue 06:21:35 PM 45.7140 -110.6840 319° Northwest 503 579 38,000  Level FlightAware ADS-B
Tue 06:22:24 PM 45.8010 -110.7950 318° Northwest 502 578 38,000  Level FlightAware ADS-B
Tue 06:23:12 PM 45.8820 -110.8980 319° Northwest 502 578 38,000  Level FlightAware ADS-B
Tue 06:24:08 PM 45.9800 -111.0230 318° Northwest 504 580 38,000  Level FlightAware ADS-B
Tue 06:25:00 PM 46.0740 -111.1330 321° Northwest 496 571 38,000  Level FlightAware ADS-B
Tue 06:25:35 PM 46.1400 -111.1960 327° Northwest 494 568 38,000  Level FlightAware ADS-B
Tue 06:26:16 PM 46.2170 -111.2700 326° Northwest 493 567 38,000  Level FlightAware ADS-B
Tue 06:26:55 PM 46.2910 -111.3410 326° Northwest 490 564 38,000  Level FlightAware ADS-B
Tue 06:27:51 PM 46.3970 -111.4430 326° Northwest 486 559 38,000  Level FlightAware ADS-B
Tue 06:28:35 PM 46.4790 -111.5200 327° Northwest 487 560 38,000  Level FlightAware ADS-B
Tue 06:29:20 PM 46.5640 -111.6030 326° Northwest 492 566 38,000  Level FlightAware ADS-B
Tue 06:30:13 PM 46.6590 -111.6940 327° Northwest 492 566 38,000  Level FlightAware ADS-B
Tue 06:31:04 PM 46.7620 -111.7960 326° Northwest 486 559 38,000  Level FlightAware ADS-B
Tue 06:31:58 PM 46.8600 -111.8970 325° Northwest 482 555 38,000  Level FlightAware ADS-B
Tue 06:32:43 PM 46.9280 -111.9820 320° Northwest 485 558 38,000  Level FlightAware ADS-B
Tue 06:33:19 PM 46.9800 -112.0480 319° Northwest 485 558 38,000  Level FlightAware ADS-B
Tue 06:33:43 PM 47.0140 -112.0920 319° Northwest 485 558 38,000  Level FlightAware ADS-B
Tue 06:34:31 PM 47.0840 -112.1800 319° Northwest 485 558 38,000  Level FlightAware ADS-B
Tue 06:35:31 PM 47.1700 -112.2900 319° Northwest 485 558 38,000  Level FlightAware ADS-B
Tue 06:36:19 PM 47.2390 -112.3790 319° Northwest 485 558 38,000  Level FlightAware ADS-B
Tue 06:37:23 PM 47.3310 -112.4970 319° Northwest 485 558 38,000  Level FlightAware ADS-B
Tue 06:37:59 PM 47.3830 -112.5630 319° Northwest 485 558 38,000  Level FlightAware ADS-B
Tue 06:38:24 PM 47.4190 -112.6090 319° Northwest 485 558 38,000  Level FlightAware ADS-B
Tue 06:39:00 PM 47.4710 -112.6760 319° Northwest 485 558 38,000  Level FlightAware ADS-B
Tue 06:39:37 PM 47.5240 -112.7450 319° Northwest 485 558 38,000  Level FlightAware ADS-B
Tue 06:40:26 PM 47.5940 -112.8350 319° Northwest 485 558 38,000  Level FlightAware ADS-B
Tue 06:41:26 PM 47.6810 -112.9470 319° Northwest 485 558 38,000  Level FlightAware ADS-B
Tue 06:42:00 PM 47.7300 -113.0100 319° Northwest 485 558 38,000  Level FlightAware ADS-B
Tue 06:44:10 PM 48.0120 -113.6050 305° West 488 562 38,000  Level FlightAware ADS-B
Tue 06:45:14 PM 48.1250 -113.7740 315° West 487 560 38,000  Level FlightAware ADS-B
Tue 06:46:15 PM 48.2270 -113.9340 314° West 493 567 38,000  Level FlightAware ADS-B
Tue 06:46:55 PM 48.2910 -114.0330 314° West 493 567 38,000  Level FlightAware ADS-B
Tue 06:47:45 PM 48.3700 -114.1570 314° West 494 568 38,000  Level FlightAware ADS-B
Tue 06:48:35 PM 48.4480 -114.2800 314° West 495 570 38,000  Level FlightAware ADS-B
Tue 06:49:10 PM 48.5040 -114.3680 314° West 492 566 38,000  Level FlightAware ADS-B
Tue 06:49:40 PM 48.5500 -114.4410 314° West 489 563 38,000  Level FlightAware ADS-B
Tue 06:50:36 PM 48.6360 -114.5780 314° West 487 560 38,000  Level FlightAware ADS-B
Tue 06:51:40 PM 48.7340 -114.7350 313° West 488 562 38,000  Level FlightAware ADS-B
Tue 06:52:21 PM 48.7970 -114.8360 313° West 478 550 38,000  Level FlightAware ADS-B
Tue 06:53:17 PM 48.8830 -114.9770 313° West 475 547 38,000  Level FlightAware ADS-B
Tue 06:54:12 PM 48.9670 -115.1130 313° West 474 545 38,000  Level FlightAware ADS-B
Tue 06:55:02 PM 49.0430 -115.2360 313° West 479 551 38,000  Level FlightAware ADS-B
Tue 06:55:52 PM 49.1120 -115.3510 313° West 478 550 38,000  Level FlightAware ADS-B
Tue 06:56:22 PM 49.1630 -115.4340 313° West 475 547 38,000  Level FlightAware ADS-B
Tue 06:57:06 PM 49.2280 -115.5420 313° West 473 544 38,000  Level FlightAware ADS-B
Tue 06:57:51 PM 49.2880 -115.6420 313° West 474 545 38,000  Level FlightAware ADS-B
Tue 06:58:32 PM 49.3550 -115.7530 313° West 475 547 38,000  Level FlightAware ADS-B
Tue 06:59:07 PM 49.4080 -115.8410 313° West 477 549 38,000  Level FlightAware ADS-B
Tue 06:59:58 PM 49.4830 -115.9680 312° West 477 549 38,000  Level FlightAware ADS-B
Tue 07:00:44 PM 49.5510 -116.0820 313° West 476 548 38,000  Level FlightAware ADS-B
Tue 07:01:09 PM 49.5880 -116.1460 312° West 471 542 38,000  Level FlightAware ADS-B
Tue 07:01:59 PM 49.6560 -116.2690 311° West 475 547 38,000  Level FlightAware ADS-B
Tue 07:02:33 PM 49.7070 -116.3600 311° West 473 544 38,000  Level FlightAware ADS-B
Tue 07:03:08 PM 49.7580 -116.4520 311° West 472 543 38,000  Level FlightAware ADS-B
Tue 07:03:43 PM 49.8040 -116.5330 311° West 473 544 38,000  Level FlightAware ADS-B
Tue 07:04:29 PM 49.8710 -116.6540 311° West 474 545 38,000  Level FlightAware ADS-B
Tue 07:05:06 PM 49.9270 -116.7550 311° West 474 545 38,000  Level FlightAware ADS-B
Tue 07:05:42 PM 49.9770 -116.8470 310° West 475 547 38,000  Level FlightAware ADS-B
Tue 07:06:29 PM 50.0430 -116.9680 310° West 477 549 38,000  Level FlightAware ADS-B
Tue 07:07:19 PM 50.1160 -117.1000 311° West 474 545 38,000  Level FlightAware ADS-B
Tue 07:08:19 PM 50.1990 -117.2540 310° West 472 543 38,000  Level FlightAware ADS-B
Tue 07:09:14 PM 50.2770 -117.3980 310° West 472 543 38,000  Level FlightAware ADS-B
Tue 07:10:08 PM 50.3530 -117.5400 310° West 473 544 38,000  Level FlightAware ADS-B
Tue 07:10:49 PM 50.4100 -117.6470 310° West 473 544 38,000  Level FlightAware ADS-B
Tue 07:11:24 PM 50.4540 -117.7290 310° West 473 544 38,000  Level FlightAware ADS-B
Tue 07:12:13 PM 50.5270 -117.8680 310° West 463 533 38,000  Level FlightAware ADS-B
Tue 07:12:56 PM 50.5860 -117.9800 310° West 468 539 38,000  Level FlightAware ADS-B
Tue 07:13:26 PM 50.6290 -118.0610 310° West 469 540 38,000  Level FlightAware ADS-B
Tue 07:13:58 PM 50.6730 -118.1460 309° West 469 540 38,000  Level FlightAware ADS-B
Tue 07:14:36 PM 50.7250 -118.2450 310° West 471 542 38,000  Level FlightAware ADS-B
Tue 07:15:21 PM 50.7850 -118.3610 309° West 471 542 38,000  Level FlightAware ADS-B
Tue 07:16:06 PM 50.8440 -118.4750 309° West 473 544 38,000  Level FlightAware ADS-B
Tue 07:17:01 PM 50.9230 -118.6300 309° West 474 545 38,000  Level FlightAware ADS-B
Tue 07:17:41 PM 50.9800 -118.7400 309° West 471 542 38,000  Level FlightAware ADS-B
Tue 07:18:06 PM 51.0140 -118.8070 309° West 471 542 38,000  Level FlightAware ADS-B
Tue 07:18:41 PM 51.0600 -118.8980 309° West 470 541 38,000  Level FlightAware ADS-B
Tue 07:19:21 PM 51.1150 -119.0060 309° West 466 536 38,000  Level FlightAware ADS-B
Tue 07:20:20 PM 51.1960 -119.1670 309° West 466 536 38,000  Level FlightAware ADS-B
Tue 07:21:12 PM 51.2660 -119.3070 309° West 466 536 38,000  Level FlightAware ADS-B
Tue 07:21:50 PM 51.3170 -119.4090 309° West 464 534 38,000  Level FlightAware ADS-B
Tue 07:22:48 PM 51.3940 -119.5630 309° West 461 531 38,000  Level FlightAware ADS-B
Tue 07:23:40 PM 51.4630 -119.7030 308° West 462 532 38,000  Level FlightAware ADS-B
Tue 07:24:35 PM 51.5340 -119.8490 308° West 462 532 38,000  Level FlightAware ADS-B
Tue 07:25:38 PM 51.6170 -120.0200 308° West 461 531 38,000  Level FlightAware ADS-B
Tue 07:26:12 PM 51.6630 -120.1130 309° West 461 531 38,000  Level FlightAware ADS-B
Tue 07:27:04 PM 51.7310 -120.2540 308° West 461 531 38,000  Level FlightAware ADS-B
Tue 07:27:36 PM 51.7720 -120.3400 308° West 462 532 38,000  Level FlightAware ADS-B
Tue 07:28:32 PM 51.8450 -120.4920 308° West 462 532 38,000  Level FlightAware ADS-B
Tue 07:29:04 PM 51.8860 -120.5790 307° West 463 533 38,000  Level FlightAware ADS-B
Tue 07:29:54 PM 51.9520 -120.7190 307° West 463 533 38,000  Level FlightAware ADS-B
Tue 07:30:34 PM 52.0030 -120.8260 308° West 465 535 38,000  Level FlightAware ADS-B
Tue 07:31:39 PM 52.0820 -120.9950 307° West 461 531 38,000  Level FlightAware ADS-B
Tue 07:32:15 PM 52.1210 -121.0790 307° West 461 531 38,000  Level FlightAware ADS-B
Tue 07:33:15 PM 52.2100 -121.2710 307° West 460 529 38,000  Level FlightAware ADS-B
Tue 07:33:50 PM 52.2550 -121.3670 307° West 459 528 38,000  Level FlightAware ADS-B
Tue 07:34:38 PM 52.3160 -121.5010 307° West 459 528 38,000  Level FlightAware ADS-B
Tue 07:35:27 PM 52.3780 -121.6350 307° West 457 526 38,000  Level FlightAware ADS-B
Tue 07:36:14 PM 52.4380 -121.7670 307° West 459 528 38,000  Level FlightAware ADS-B
Tue 07:36:50 PM 52.4830 -121.8670 306° West 461 531 38,000  Level FlightAware ADS-B
Tue 07:37:51 PM 52.5600 -122.0370 307° West 456 525 38,000  Level FlightAware ADS-B
Tue 07:38:46 PM 52.6280 -122.1900 306° West 453 521 38,000  Level FlightAware ADS-B
Tue 07:39:14 PM 52.6630 -122.2690 306° West 453 521 38,000  Level FlightAware ADS-B
Tue 07:40:08 PM 52.7290 -122.4180 306° West 454 522 38,000  Level FlightAware ADS-B
Tue 07:41:13 PM 52.8080 -122.5980 306° West 451 519 38,000  Level FlightAware ADS-B
Tue 07:42:02 PM 52.8690 -122.7350 306° West 451 519 38,000  Level FlightAware ADS-B
Tue 07:43:01 PM 52.9410 -122.9010 306° West 457 526 38,000  Level FlightAware ADS-B
Tue 07:43:52 PM 53.0040 -123.0470 306° West 455 524 38,000  Level FlightAware ADS-B
Tue 07:44:44 PM 53.0670 -123.1950 305° West 450 518 38,000  Level FlightAware ADS-B
Tue 07:45:42 PM 53.1370 -123.3570 306° West 448 516 38,000  Level FlightAware ADS-B
Tue 07:46:09 PM 53.1690 -123.4320 305° West 449 517 38,000  Level FlightAware ADS-B
Tue 07:46:42 PM 53.2090 -123.5270 305° West 450 518 38,000  Level FlightAware ADS-B
Tue 07:47:34 PM 53.2700 -123.6710 305° West 450 518 38,000  Level FlightAware ADS-B
Tue 07:48:18 PM 53.3230 -123.7970 305° West 448 516 38,000  Level FlightAware ADS-B
Tue 07:49:16 PM 53.3920 -123.9620 305° West 448 516 38,000  Level FlightAware ADS-B
Tue 07:50:11 PM 53.4560 -124.1180 305° West 446 513 38,000  Level FlightAware ADS-B
Tue 07:50:55 PM 53.5080 -124.2430 305° West 443 510 38,000  Level FlightAware ADS-B
Tue 07:51:40 PM 53.5600 -124.3690 305° West 447 514 38,000  Level FlightAware ADS-B
Tue 07:52:27 PM 53.6150 -124.5050 304° West 447 514 38,000  Level FlightAware ADS-B
Tue 07:53:23 PM 53.6800 -124.6650 304° West 447 514 38,000  Level FlightAware ADS-B
Tue 07:54:31 PM 53.7570 -124.8570 304° West 447 514 38,000  Level FlightAware ADS-B
Tue 07:54:53 PM 53.7850 -124.9260 305° West 447 514 38,000  Level FlightAware ADS-B
Tue 07:55:53 PM 53.8540 -125.0990 304° West 447 514 38,000  Level FlightAware ADS-B
Tue 07:56:47 PM 53.9170 -125.2570 304° West 449 517 38,000  Level FlightAware ADS-B
Tue 07:57:43 PM 53.9810 -125.4200 304° West 448 516 38,000  Level FlightAware ADS-B
Tue 07:58:45 PM 54.0510 -125.5990 304° West 448 516 38,000  Level FlightAware ADS-B
Tue 07:59:25 PM 54.0980 -125.7200 304° West 447 514 38,000  Level FlightAware ADS-B
Tue 08:00:13 PM 54.1510 -125.8580 303° West 449 517 38,000  Level FlightAware ADS-B
Tue 08:00:41 PM 54.1830 -125.9410 303° West 447 514 38,000  Level FlightAware ADS-B
Tue 08:01:35 PM 54.2440 -126.1000 303° West 444 511 38,000  Level FlightAware ADS-B
Tue 08:02:33 PM 54.3090 -126.2710 303° West 443 510 38,000  Level FlightAware ADS-B
Tue 08:03:17 PM 54.3580 -126.4000 303° West 441 507 38,000  Level FlightAware ADS-B
Tue 08:04:11 PM 54.4170 -126.5570 303° West 439 505 38,000  Level FlightAware ADS-B
Tue 08:04:41 PM 54.4490 -126.6420 303° West 439 505 38,000  Level FlightAware ADS-B
Tue 08:05:36 PM 54.5070 -126.8040 302° West 438 504 38,000  Level FlightAware ADS-B
Tue 08:06:39 PM 54.5740 -126.9930 302° West 435 501 38,000  Level FlightAware ADS-B
Tue 08:07:27 PM 54.6220 -127.1310 301° West 434 499 38,000  Level FlightAware ADS-B
Tue 08:08:01 PM 54.6590 -127.2360 301° West 436 502 38,000  Level FlightAware ADS-B
Tue 08:08:41 PM 54.6940 -127.3380 301° West 436 502 38,000  Level FlightAware ADS-B
Tue 08:09:27 PM 54.7480 -127.4940 301° West 431 496 38,000  Level FlightAware ADS-B
Tue 08:10:16 PM 54.7960 -127.6320 301° West 433 498 38,000  Level FlightAware ADS-B
Tue 08:11:23 PM 54.8530 -127.8030 300° West 433 498 38,000  Level FlightAware ADS-B
Tue 08:11:55 PM 54.8940 -127.9210 301° West 433 498 38,000  Level FlightAware ADS-B
Tue 08:12:55 PM 54.9450 -128.0750 300° West 433 498 38,000  Level FlightAware ADS-B
Tue 08:13:19 PM 54.9650 -128.1360 300° West 433 498 38,000  Level FlightAware ADS-B
Tue 08:14:19 PM 55.0400 -128.3560 301° West 435 501 38,000  Level FlightAware ADS-B
Tue 08:14:43 PM 55.0610 -128.4180 301° West 435 501 38,000  Level FlightAware ADS-B
Tue 08:15:07 PM 55.0810 -128.4800 299° West 435 501 38,000  Level FlightAware ADS-B
Tue 08:15:56 PM 55.1230 -128.6070 300° West 435 501 38,000  Level FlightAware ADS-B
Tue 08:16:57 PM 55.1750 -128.7650 300° West 435 501 38,000  Level FlightAware ADS-B
Tue 08:17:21 PM 55.1960 -128.8270 301° West 435 501 38,000  Level FlightAware ADS-B
Tue 08:18:22 PM 55.2480 -128.9860 300° West 435 501 38,000  Level FlightAware ADS-B
Tue 08:19:10 PM 55.2890 -129.1100 300° West 435 501 38,000  Level FlightAware ADS-B
Tue 08:19:46 PM 55.3200 -129.2040 300° West 435 501 38,000  Level FlightAware ADS-B
Tue 08:20:47 PM 55.3720 -129.3630 300° West 435 501 38,000  Level FlightAware ADS-B
Tue 08:21:35 PM 55.4130 -129.4880 300° West 435 501 38,000  Level FlightAware ADS-B
Tue 08:22:23 PM 55.4540 -129.6140 300° West 435 501 38,000  Level FlightAware ADS-B
Tue 08:22:48 PM 55.4750 -129.6790 300° West 435 501 38,000  Level FlightAware ADS-B
Tue 08:23:48 PM 55.5270 -129.8360 300° West 435 501 38,000  Level FlightAware ADS-B
Tue 08:25:02 PM 55.6667 -130.3667 300° West 430 495 38,000  Level Vancouver Center
Tue 08:26:02 PM 55.7167 -130.5500 296° West 420 483 38,000  Level Vancouver Center
Tue 08:27:02 PM 55.7667 -130.7667 292° West 420 483 38,000  Level Vancouver Center
Tue 08:28:02 PM 55.8333 -130.9333 306° West 420 483 38,000  Level Vancouver Center
Tue 08:29:13 PM 55.9000 -131.1167 303° West 430 495 38,000  Level Anchorage Center
Tue 08:30:02 PM 55.9500 -131.3000 296° West 430 495 38,000  Level Vancouver Center
Tue 08:31:02 PM 56.0000 -131.5000 294° West 420 483 38,000  Level Vancouver Center
Tue 08:32:02 PM 56.0500 -131.6833 296° West 430 495 38,000  Level Vancouver Center
Tue 08:33:02 PM 56.1167 -131.8833 301° West 420 483 38,000  Level Vancouver Center
Tue 08:34:02 PM 56.1667 -132.0667 296° West 430 495 38,000  Level Vancouver Center
Tue 08:35:02 PM 56.2167 -132.2333 298° West 430 495 38,000  Level Vancouver Center
Tue 08:36:02 PM 56.2500 -132.4500 286° West 420 483 38,000  Level Vancouver Center
Tue 08:37:02 PM 56.3167 -132.6500 301° West 440 506 38,000  Level Vancouver Center
Tue 08:38:02 PM 56.3500 -132.8667 286° West 420 483 38,000  Level Vancouver Center
Tue 08:39:02 PM 56.3833 -133.0167 292° West 420 483 38,000  Level Vancouver Center
Tue 08:40:02 PM 56.4333 -133.2500 291° West 420 483 38,000  Level Vancouver Center
Tue 08:41:02 PM 56.4667 -133.4000 292° West 420 483 38,000  Level Vancouver Center
Tue 08:42:02 PM 56.5167 -133.6333 291° West 430 495 38,000  Level Vancouver Center
Tue 08:43:14 PM 56.5667 -133.8000 299° West 420 483 38,000  Level Anchorage Center
Tue 08:44:14 PM 56.6000 -134.0000 287° West 410 472 38,000  Level Anchorage Center
Tue 08:45:14 PM 56.6500 -134.2000 295° West 420 483 38,000  Level Anchorage Center
Tue 08:46:14 PM 56.6833 -134.3833 288° West 420 483 38,000  Level Anchorage Center
Tue 08:47:14 PM 56.7333 -134.5833 295° West 420 483 38,000  Level Anchorage Center
Tue 08:48:14 PM 56.7667 -134.7833 287° West 420 483 38,000  Level Anchorage Center
Tue 08:49:14 PM 56.8000 -134.9833 287° West 420 483 38,000  Level Anchorage Center
Tue 08:50:14 PM 56.8500 -135.1833 295° West 410 472 38,000  Level Anchorage Center
Tue 08:51:15 PM 56.8833 -135.3500 290° West 420 483 38,000  Level Anchorage Center
Tue 08:52:14 PM 56.9167 -135.5500 287° West 410 472 38,000  Level Anchorage Center
Tue 08:53:15 PM 56.9500 -135.7667 286° West 410 472 38,000  Level Anchorage Center
Tue 08:54:15 PM 57.0000 -135.9667 295° West 420 483 38,000  Level Anchorage Center
Tue 08:55:15 PM 57.0333 -136.1667 287° West 410 472 38,000  Level Anchorage Center
Tue 08:56:15 PM 57.0667 -136.3667 287° West 410 472 38,000  Level Anchorage Center
Tue 08:57:15 PM 57.1000 -136.5667 287° West 410 472 38,000  Level Anchorage Center
Tue 08:58:15 PM 57.1500 -136.7667 295° West 420 483 38,000  Level Anchorage Center
Tue 08:59:15 PM 57.1833 -136.9667 287° West 420 483 38,000  Level Anchorage Center
Tue 09:00:15 PM 57.2167 -137.1833 286° West 410 472 38,000  Level Anchorage Center
Tue 09:01:15 PM 57.2500 -137.3833 287° West 400 460 38,000  Level Anchorage Center
Tue 09:02:15 PM 57.2833 -137.5833 287° West 410 472 38,000  Level Anchorage Center
Tue 09:03:16 PM 57.3167 -137.7833 287° West 410 472 38,000  Level Anchorage Center
Tue 09:04:15 PM 57.3500 -137.9833 287° West 410 472 38,000  Level Anchorage Center
Tue 09:05:16 PM 57.3833 -138.1833 287° West 410 472 38,000  Level Anchorage Center
Tue 09:06:16 PM 57.4167 -138.3833 287° West 410 472 38,000  Level Anchorage Center
Tue 09:07:16 PM 57.4500 -138.5833 287° West 410 472 38,000  Level Anchorage Center
Tue 09:08:16 PM 57.5000 -138.8000 293° West 420 483 38,000  Level Anchorage Center
Tue 09:09:16 PM 57.5333 -139.0000 287° West 410 472 38,000  Level Anchorage Center
Tue 09:10:16 PM 57.5500 -139.2167 278° West 420 483 38,000  Level Anchorage Center
Tue 09:11:16 PM 57.5833 -139.4167 287° West 410 472 38,000  Level Anchorage Center
Tue 09:12:16 PM 57.6167 -139.6167 287° West 420 483 38,000  Level Anchorage Center
Tue 09:13:17 PM 57.6500 -139.8333 286° West 420 483 38,000  Level Anchorage Center
Tue 09:14:17 PM 57.6833 -140.0333 287° West 420 483 38,000  Level Anchorage Center
Tue 09:15:17 PM 57.7167 -140.2500 286° West 420 483 38,000  Level Anchorage Center
Tue 09:16:17 PM 57.7500 -140.4667 286° West 420 483 38,000  Level Anchorage Center
Tue 09:17:17 PM 57.7667 -140.6833 278° West 420 483 38,000  Level Anchorage Center
Tue 09:18:17 PM 57.8000 -140.9000 286° West 420 483 38,000  Level Anchorage Center
Tue 09:19:17 PM 57.8333 -141.1000 287° West 420 483 38,000  Level Anchorage Center
Tue 09:20:17 PM 57.8667 -141.3167 286° West 420 483 38,000  Level Anchorage Center
Tue 09:21:17 PM 57.9000 -141.5333 286° West 420 483 38,000  Level Anchorage Center
Tue 09:22:17 PM 57.9167 -141.7500 278° West 430 495 38,000  Level Anchorage Center
Tue 09:23:18 PM 57.9500 -141.9833 285° West 430 495 38,000  Level Anchorage Center
Tue 09:24:18 PM 57.9833 -142.2000 286° West 430 495 38,000  Level Anchorage Center
Tue 09:25:18 PM 58.0167 -142.4167 286° West 430 495 38,000  Level Anchorage Center
Tue 09:26:18 PM 58.0333 -142.6333 278° West 430 495 38,000  Level Anchorage Center
Tue 09:27:18 PM 58.0667 -142.8667 285° West 430 495 38,000  Level Anchorage Center
Tue 09:28:18 PM 58.1000 -143.0833 286° West 430 495 38,000  Level Anchorage Center
Tue 09:29:18 PM 58.1167 -143.3000 278° West 430 495 38,000  Level Anchorage Center
Tue 09:30:18 PM 58.1500 -143.5167 286° West 430 495 38,000  Level Anchorage Center
Tue 09:31:18 PM 58.1667 -143.7500 278° West 430 495 38,000  Level Anchorage Center
Tue 09:32:19 PM 58.2000 -143.9667 286° West 440 506 38,000  Level Anchorage Center
Tue 09:33:18 PM 58.2167 -144.2000 278° West 440 506 38,000  Level Anchorage Center
Tue 09:34:18 PM 58.2500 -144.4333 285° West 440 506 38,000  Level Anchorage Center
Tue 09:35:19 PM 58.2667 -144.6500 278° West 440 506 38,000  Level Anchorage Center
Tue 09:36:19 PM 58.3000 -144.8833 285° West 440 506 38,000  Level Anchorage Center
Tue 09:37:19 PM 58.3167 -145.1167 278° West 440 506 38,000  Level Anchorage Center
Tue 09:38:19 PM 58.3500 -145.3500 285° West 440 506 38,000  Level Anchorage Center
Tue 09:39:19 PM 58.3667 -145.5833 278° West 440 506 38,000  Level Anchorage Center
Tue 09:40:19 PM 58.4000 -145.8167 285° West 450 518 38,000  Level Anchorage Center
Tue 09:41:19 PM 58.4167 -146.0500 278° West 440 506 38,000  Level Anchorage Center
Tue 09:42:20 PM 58.4333 -146.2833 278° West 440 506 38,000  Level Anchorage Center
Tue 09:43:20 PM 58.4667 -146.5167 285° West 450 518 38,000  Level Anchorage Center
Tue 09:44:20 PM 58.4833 -146.7667 277° West 450 518 38,000  Level Anchorage Center
Tue 09:45:20 PM 58.5000 -147.0000 278° West 450 518 38,000  Level Anchorage Center
Tue 09:46:20 PM 58.5167 -147.2333 278° West 450 518 38,000  Level Anchorage Center
Tue 09:47:20 PM 58.5500 -147.4833 284° West 450 518 38,000 50 Level Anchorage Center
Tue 09:48:20 PM 58.5667 -147.7167 278° West 450 518 38,100 325 Climbing Anchorage Center
Tue 09:53:29 PM 58.6690 -148.9610 278° West 451 519 40,000 311 Climbing FlightAware ADS-B
Tue 09:54:27 PM 58.6850 -149.1860 278° West 452 520 40,000  Level FlightAware ADS-B
Tue 09:55:19 PM 58.7000 -149.3980 278° West 453 521 40,000  Level FlightAware ADS-B
Tue 09:55:47 PM 58.7080 -149.5020 278° West 453 521 40,000  Level FlightAware ADS-B
Tue 09:56:21 PM 58.7170 -149.6450 277° West 454 522 40,000  Level FlightAware ADS-B
Tue 09:57:07 PM 58.7290 -149.8260 277° West 454 522 40,000  Level FlightAware ADS-B
Tue 09:58:00 PM 58.7430 -150.0410 277° West 456 525 40,000  Level FlightAware ADS-B
Tue 09:58:32 PM 58.7520 -150.1710 278° West 456 525 40,000  Level FlightAware ADS-B
Tue 09:59:21 PM 58.7620 -150.3390 277° West 456 525 40,000  Level FlightAware ADS-B
Tue 10:00:01 PM 58.7720 -150.5080 277° West 459 528 40,000  Level FlightAware ADS-B
Tue 10:00:49 PM 58.7810 -150.6740 276° West 459 528 40,000  Level FlightAware ADS-B
Tue 10:01:35 PM 58.7900 -150.8330 276° West 459 528 40,000  Level FlightAware ADS-B
Tue 10:02:23 PM 58.7990 -151.0000 276° West 459 528 40,000  Level FlightAware ADS-B
Tue 10:02:58 PM 58.8050 -151.1210 276° West 459 528 40,000  Level FlightAware ADS-B
Tue 10:03:52 PM 58.8270 -151.4770 277° West 464 534 40,000  Level FlightAware ADS-B
Tue 10:04:42 PM 58.8380 -151.6750 276° West 465 535 40,000  Level FlightAware ADS-B
Tue 10:05:34 PM 58.8480 -151.8780 276° West 466 536 40,000  Level FlightAware ADS-B
Tue 10:06:22 PM 58.8550 -152.0480 275° West 466 536 40,000  Level FlightAware ADS-B
Tue 10:06:46 PM 58.8590 -152.1320 275° West 466 536 40,000  Level FlightAware ADS-B
Tue 10:07:23 PM 58.8650 -152.2630 275° West 466 536 40,000  Level FlightAware ADS-B
Tue 10:08:12 PM 58.8730 -152.4360 275° West 466 536 40,000  Level FlightAware ADS-B
Tue 10:09:10 PM 58.8820 -152.6410 275° West 466 536 40,000  Level FlightAware ADS-B
Tue 10:09:34 PM 58.8860 -152.7260 275° West 466 536 40,000  Level FlightAware ADS-B
Tue 10:10:34 PM 58.8950 -152.9380 275° West 466 536 40,000  Level FlightAware ADS-B
Tue 10:10:58 PM 58.8990 -153.0220 275° West 466 536 40,000  Level FlightAware ADS-B
Tue 10:11:32 PM 58.9050 -153.1430 276° West 466 536 40,000  Level FlightAware ADS-B
Tue 10:12:16 PM 58.9120 -153.2980 275° West 466 536 40,000  Level FlightAware ADS-B
Tue 10:12:52 PM 58.9170 -153.4250 274° West 466 536 40,000  Level FlightAware ADS-B
Tue 10:13:52 PM 58.9270 -153.6380 275° West 466 536 40,000  Level FlightAware ADS-B
Tue 10:14:40 PM 58.9350 -153.8070 275° West 466 536 40,000  Level FlightAware ADS-B
Tue 10:15:04 PM 58.9380 -153.8920 274° West 466 536 40,000  Level FlightAware ADS-B
Tue 10:16:23 PM 58.9500 -154.5333 274° West 460 529 40,000  Level Anchorage Center
Tue 10:17:23 PM 58.9500 -154.7833 270° West 470 541 40,000  Level Anchorage Center
Tue 10:19:23 PM 58.9667 -155.2833 274° West 470 541 40,000  Level Anchorage Center
Tue 10:20:23 PM 58.9667 -155.5333 270° West 470 541 40,000  Level Anchorage Center
Tue 10:21:23 PM 58.9833 -155.8500 276° West 470 541 40,000  Level Anchorage Center
Tue 10:22:23 PM 58.9833 -156.1000 270° West 460 529 40,000  Level Anchorage Center
Tue 10:23:24 PM 58.9833 -156.3500 270° West 470 541 40,000  Level Anchorage Center
Tue 10:24:24 PM 58.9833 -156.6000 270° West 470 541 40,000  Level Anchorage Center
Tue 10:25:24 PM 58.9833 -156.8500 270° West 470 541 40,000  Level Anchorage Center
Tue 10:26:24 PM 59.0000 -157.1167 277° West 470 541 40,000  Level Anchorage Center
Tue 10:27:24 PM 59.0000 -157.3667 270° West 470 541 40,000  Level Anchorage Center
Tue 10:28:24 PM 59.0000 -157.6167 270° West 470 541 40,000  Level Anchorage Center
Tue 10:29:24 PM 59.0000 -157.8833 270° West 470 541 40,000  Level Anchorage Center
Tue 10:30:24 PM 59.0000 -158.1333 270° West 470 541 40,000  Level Anchorage Center
Tue 10:31:24 PM 59.0000 -158.3333 270° West 480 552 40,000  Level Anchorage Center
Tue 10:32:25 PM 59.0000 -158.6500 270° West 470 541 40,000  Level Anchorage Center
Tue 10:33:25 PM 59.0000 -158.9000 270° West 470 541 40,000  Level Anchorage Center
Tue 10:34:25 PM 59.0000 -159.1667 270° West 480 552 40,000  Level Anchorage Center
Tue 10:35:25 PM 59.0000 -159.4167 270° West 470 541 40,000  Level Anchorage Center
Tue 10:36:25 PM 58.9833 -159.6500 262° West 480 552 40,000  Level Anchorage Center
Tue 10:37:25 PM 58.9833 -159.9167 270° West 480 552 40,000  Level Anchorage Center
Tue 10:38:25 PM 58.9833 -160.1667 270° West 480 552 40,000  Level Anchorage Center
Tue 10:39:25 PM 58.9833 -160.4333 270° West 470 541 40,000  Level Anchorage Center
Tue 10:40:25 PM 58.9833 -160.7000 270° West 480 552 40,000  Level Anchorage Center
Tue 10:41:26 PM 58.9667 -160.9500 263° West 470 541 40,000  Level Anchorage Center
Tue 10:42:26 PM 58.9667 -161.2667 270° West 480 552 40,000  Level Anchorage Center
Tue 10:43:26 PM 58.9500 -161.5167 263° West 470 541 40,000  Level Anchorage Center
Tue 10:44:26 PM 58.9500 -161.7833 270° West 480 552 40,000  Level Anchorage Center
Tue 10:45:26 PM 58.9333 -162.0333 263° West 470 541 40,000  Level Anchorage Center
Tue 10:46:26 PM 58.9333 -162.3000 270° West 480 552 40,000  Level Anchorage Center
Tue 10:47:26 PM 58.9333 -162.5500 270° West 480 552 40,000  Level Anchorage Center
Tue 10:48:27 PM 58.9167 -162.8167 263° West 480 552 40,000  Level Anchorage Center
Tue 10:49:26 PM 58.9000 -163.0667 263° West 480 552 40,000  Level Anchorage Center
Tue 10:50:26 PM 58.9000 -163.3333 270° West 480 552 40,000  Level Anchorage Center
Tue 10:51:26 PM 58.8833 -163.5833 263° West 480 552 40,000  Level Anchorage Center
Tue 10:52:27 PM 58.8833 -163.8500 270° West 490 564 40,000  Level Anchorage Center
Tue 10:53:27 PM 58.8667 -164.1000 263° West 480 552 40,000  Level Anchorage Center
Tue 10:54:27 PM 58.8500 -164.3667 263° West 480 552 40,000  Level Anchorage Center
Tue 10:55:27 PM 58.8500 -164.6167 270° West 480 552 40,000  Level Anchorage Center
Tue 10:56:27 PM 58.8333 -164.8833 263° West 480 552 40,000  Level Anchorage Center
Tue 10:57:27 PM 58.8167 -165.1500 263° West 480 552 40,000  Level Anchorage Center
Tue 10:58:28 PM 58.8000 -165.4000 263° West 490 564 40,000  Level Anchorage Center
Tue 10:59:27 PM 58.7833 -165.6667 263° West 480 552 40,000  Level Anchorage Center
Tue 11:00:27 PM 58.7667 -165.9167 263° West 480 552 40,000  Level Anchorage Center
Tue 11:01:36 PM 58.7500 -166.2333 264° West 480 552 40,000  Level Anchorage Center
Tue 11:02:36 PM 58.7333 -166.4833 263° West 470 541 40,000  Level Anchorage Center
Tue 11:03:36 PM 58.7333 -166.7500 270° West 480 552 40,000  Level Anchorage Center
Tue 11:04:36 PM 58.7000 -166.9833 255° West 460 529 40,000  Level Anchorage Center
Tue 11:05:36 PM 58.6833 -167.2500 263° West 470 541 40,000  Level Anchorage Center
Tue 11:06:36 PM 58.6667 -167.5000 263° West 480 552 40,000  Level Anchorage Center
Tue 11:07:36 PM 58.6333 -167.7667 257° West 480 552 40,000  Level Anchorage Center
Tue 11:08:36 PM 58.6167 -168.0167 263° West 490 564 40,000  Level Anchorage Center
Tue 11:09:36 PM 58.6000 -168.2667 263° West 470 541 40,000  Level Anchorage Center
Tue 11:10:37 PM 58.5667 -168.5333 257° West 480 552 40,000  Level Anchorage Center
Tue 11:11:36 PM 58.5500 -168.7833 263° West 480 552 40,000  Level Anchorage Center
Tue 11:12:37 PM 58.5167 -169.0333 256° West 480 552 40,000  Level Anchorage Center
Tue 11:13:36 PM 58.5000 -169.3000 263° West 480 552 40,000  Level Anchorage Center
Tue 11:14:36 PM 58.4833 -169.5000 261° West 490 564 40,000  Level Anchorage Center
Tue 11:15:37 PM 58.4500 -169.8167 259° West 490 564 40,000  Level Anchorage Center
Tue 11:16:37 PM 58.4333 -170.0167 261° West 490 564 40,000  Level Anchorage Center
Tue 11:17:37 PM 58.4000 -170.3167 258° West 480 552 40,000  Level Anchorage Center
Tue 11:18:37 PM 58.3667 -170.5167 252° West 480 552 40,000  Level Anchorage Center
Tue 11:19:37 PM 58.3500 -170.7833 263° West 480 552 40,000  Level Anchorage Center
Tue 11:20:37 PM 58.3167 -171.0333 256° West 480 552 40,000  Level Anchorage Center
Tue 11:21:37 PM 58.2833 -171.3167 258° West 480 552 40,000  Level Anchorage Center
Tue 11:22:37 PM 58.2667 -171.5333 262° West 480 552 40,000  Level Anchorage Center
Tue 11:23:37 PM 58.2333 -171.7667 255° West 480 552 40,000  Level Anchorage Center
Tue 11:24:37 PM 58.2000 -172.0167 256° West 470 541 40,000  Level Anchorage Center
Tue 11:25:38 PM 58.1667 -172.2667 256° West 480 552 40,000  Level Anchorage Center
Tue 11:26:37 PM 58.1500 -172.5167 263° West 490 564 40,000  Level Anchorage Center
Tue 11:27:38 PM 58.1167 -172.7667 256° West 490 564 40,000  Level Anchorage Center
Tue 11:28:38 PM 58.0833 -173.0167 256° West 470 541 40,000  Level Anchorage Center
Tue 11:29:38 PM 58.0500 -173.2667 256° West 480 552 40,000  Level Anchorage Center
Tue 11:30:38 PM 58.0167 -173.5167 256° West 480 552 40,000  Level Anchorage Center
Tue 11:31:38 PM 57.9833 -173.7667 256° West 490 564 40,000  Level Anchorage Center
Tue 11:32:38 PM 57.9500 -174.0167 256° West 480 552 40,000  Level Anchorage Center
Tue 11:33:38 PM 57.9167 -174.2500 255° West 470 541 40,000  Level Anchorage Center
Tue 11:34:38 PM 57.8833 -174.5000 256° West 490 564 40,000  Level Anchorage Center
Tue 11:35:38 PM 57.8500 -174.7500 256° West 480 552 40,000  Level Anchorage Center
Tue 11:36:38 PM 57.8167 -174.9833 255° West 480 552 40,000  Level Anchorage Center
Tue 11:37:38 PM 57.7667 -175.2333 250° West 480 552 40,000  Level Anchorage Center
Tue 11:38:38 PM 57.7333 -175.4667 255° West 480 552 40,000  Level Anchorage Center
Tue 11:39:39 PM 57.7000 -175.7167 256° West 480 552 40,000  Level Anchorage Center
Tue 11:40:38 PM 57.6667 -175.9500 255° West 480 552 40,000  Level Anchorage Center
Tue 11:41:38 PM 57.6333 -176.1833 255° West 470 541 40,000  Level Anchorage Center
Tue 11:44:05 PM 57.5333 -176.8000 252° West 480 552 40,000  Level Anchorage Center
Tue 11:49:20 PM 57.3167 -178.0333 251° West 484 557 40,000  Level Anchorage Center
Tue 11:50:00 PM 57.2817 -178.1970 251° West 480 552 40,000  Level FlightAware Transoceanic
Tue 11:51:00 PM 57.2382 -178.4280 251° West 480 552 40,000  Level FlightAware Transoceanic
Tue 11:52:00 PM 57.1943 -178.6584 251° West 480 552 40,000  Level FlightAware Transoceanic
Tue 11:53:00 PM 57.1501 -178.8883 250° West 480 552 40,000  Level FlightAware Transoceanic
Tue 11:54:00 PM 57.1053 -179.1176 250° West 480 552 40,000  Level FlightAware Transoceanic
Tue 11:55:00 PM 57.0466 -179.4348 250° West 484 557 40,000  Level FlightAware Transoceanic
Tue 11:56:00 PM 57.0001 -179.6664 250° West 484 557 40,000  Level FlightAware Transoceanic
Tue 11:57:00 PM 56.9531 -179.8974 249° West 484 557 40,000  Level FlightAware Transoceanic
Tue 11:58:00 PM 56.9058 179.8722 249° West 484 557 40,000  Level FlightAware Transoceanic
Tue 11:58:56 PM 56.8833 179.7500 249° West 479 551 40,000  Level Anchorage Center
Tue 11:59:00 PM 56.8579 179.6423 249° West 484 557 40,000  Level FlightAware Transoceanic
Wed 12:00:00 AM 56.8097 179.4131 249° West 484 557 40,000  Level FlightAware Transoceanic
Wed 12:01:00 AM 56.7611 179.1844 249° West 484 557 40,000  Level FlightAware Transoceanic
Wed 12:02:00 AM 56.7120 178.9564 248° West 484 557 40,000  Level FlightAware Transoceanic
Wed 12:03:00 AM 56.6626 178.7289 248° West 484 557 40,000  Level FlightAware Transoceanic
Wed 12:04:00 AM 56.6127 178.5021 248° West 484 557 40,000  Level FlightAware Transoceanic
Wed 12:05:00 AM 56.5929 178.4018 248° West 479 551 40,000  Level FlightAware Transoceanic
Wed 12:06:00 AM 56.5431 178.1791 248° West 479 551 40,000  Level FlightAware Transoceanic
Wed 12:07:00 AM 56.4929 177.9570 248° West 479 551 40,000  Level FlightAware Transoceanic
Wed 12:08:00 AM 56.4423 177.7355 247° West 479 551 40,000  Level FlightAware Transoceanic
Wed 12:08:33 AM 56.4000 177.6000 247° West 479 551 40,000  Level Anchorage Center
Wed 12:09:00 AM 56.3913 177.5146 247° West 479 551 40,000  Level FlightAware Transoceanic
Wed 12:10:00 AM 56.3399 177.2943 247° West 479 551 40,000  Level FlightAware Transoceanic
Wed 12:11:00 AM 56.2881 177.0746 247° West 479 551 40,000  Level FlightAware Transoceanic
Wed 12:12:00 AM 56.2360 176.8555 247° West 479 551 40,000  Level FlightAware Transoceanic
Wed 12:13:00 AM 56.1834 176.6369 247° West 479 551 40,000  Level FlightAware Transoceanic
Wed 12:14:00 AM 56.1305 176.4190 246° West 479 551 40,000  Level FlightAware Transoceanic
Wed 12:15:00 AM 56.0446 176.1035 246° West 479 551 40,000  Level FlightAware Transoceanic
Wed 12:16:00 AM 55.9924 175.8920 246° West 479 551 40,000  Level FlightAware Transoceanic
Wed 12:17:00 AM 55.9398 175.6811 246° West 479 551 40,000  Level FlightAware Transoceanic
Wed 12:17:16 AM 55.9333 175.6833 245° Southwest 470 541 40,000  Level Anchorage Center
Wed 12:18:00 AM 55.8868 175.4707 246° West 479 551 40,000  Level FlightAware Transoceanic
Wed 12:18:16 AM 55.8833 175.5000 244° Southwest 470 541 40,000  Level Anchorage Center
Wed 12:19:00 AM 55.8335 175.2609 246° West 479 551 40,000  Level FlightAware Transoceanic
Wed 12:19:17 AM 55.8333 175.2667 249° West 470 541 40,000  Level Anchorage Center
Wed 12:20:00 AM 55.7799 175.0517 245° Southwest 479 551 40,000  Level FlightAware Transoceanic
Wed 12:20:16 AM 55.7833 175.0833 244° Southwest 470 541 40,000  Level Anchorage Center
Wed 12:21:00 AM 55.7259 174.8431 245° Southwest 479 551 40,000  Level FlightAware Transoceanic
Wed 12:21:17 AM 55.7167 174.8333 245° Southwest 480 552 40,000  Level Anchorage Center
Wed 12:22:00 AM 55.6715 174.6350 245° Southwest 479 551 40,000  Level FlightAware Transoceanic
Wed 12:22:16 AM 55.6667 174.6500 244° Southwest 480 552 40,000  Level Anchorage Center
Wed 12:23:16 AM 55.6167 174.4167 249° West 470 541 40,000  Level Anchorage Center
Wed 12:24:17 AM 55.5500 174.2000 242° Southwest 470 541 40,000  Level Anchorage Center
Wed 12:25:17 AM 55.5000 174.0167 244° Southwest 470 541 40,000  Level Anchorage Center
Wed 12:26:17 AM 55.4333 173.7833 243° Southwest 480 552 40,000  Level Anchorage Center
Wed 12:27:17 AM 55.3833 173.6000 244° Southwest 480 552 40,000  Level Anchorage Center
Wed 12:28:17 AM 55.3167 173.3667 243° Southwest 470 541 40,000  Level Anchorage Center
Wed 12:29:17 AM 55.2667 173.1833 244° Southwest 480 552 40,000  Level Anchorage Center
Wed 12:30:17 AM 55.2000 172.9500 243° Southwest 480 552 40,000  Level Anchorage Center
Wed 12:31:17 AM 55.1333 172.7333 242° Southwest 480 552 40,000  Level Anchorage Center
Wed 12:32:17 AM 55.0833 172.5500 245° Southwest 470 541 40,000  Level Anchorage Center
Wed 12:33:17 AM 55.0167 172.3333 242° Southwest 480 552 40,000  Level Anchorage Center
Wed 12:34:17 AM 54.9667 172.1500 245° Southwest 480 552 40,000  Level Anchorage Center
Wed 12:35:18 AM 54.9000 171.9167 244° Southwest 480 552 40,000  Level Anchorage Center
Wed 12:36:17 AM 54.8333 171.7667 232° Southwest 460 529 40,000  Level Anchorage Center
Wed 12:37:17 AM 54.7500 171.5500 236° Southwest 490 564 40,000  Level Anchorage Center
Wed 12:38:17 AM 54.6833 171.4000 232° Southwest 480 552 40,000  Level Anchorage Center
Wed 12:39:18 AM 54.6000 171.2000 234° Southwest 470 541 40,000  Level Anchorage Center
Wed 12:40:18 AM 54.5167 170.9833 237° Southwest 490 564 40,000  Level Anchorage Center
Wed 12:41:18 AM 54.4500 170.8333 233° Southwest 490 564 40,000  Level Anchorage Center
Wed 12:42:18 AM 54.3667 170.6333 234° Southwest 470 541 40,000  Level Anchorage Center
Wed 12:43:18 AM 54.3000 170.4833 233° Southwest 460 529 40,000  Level Anchorage Center
Wed 12:44:18 AM 54.2000 170.2667 232° Southwest 490 564 40,000  Level Anchorage Center
Wed 12:45:18 AM 54.1333 170.1167 233° Southwest 470 541 40,000  Level Anchorage Center
Wed 12:46:18 AM 54.0500 169.9167 235° Southwest 480 552 40,000  Level Anchorage Center
Wed 12:47:18 AM 53.9667 169.7333 232° Southwest 470 541 40,000  Level Anchorage Center
Wed 12:48:18 AM 53.9000 169.5833 233° Southwest 470 541 40,000  Level Anchorage Center
Wed 12:49:18 AM 53.8000 169.3833 230° Southwest 480 552 40,000  Level Anchorage Center
Wed 12:50:18 AM 53.7333 169.2167 236° Southwest 510 587 40,000  Level Anchorage Center
Wed 12:51:19 AM 53.6667 169.0500 236° Southwest 490 564 40,000  Level Anchorage Center
Wed 12:52:18 AM 53.6167 168.8500 247° West 460 529 40,000  Level Anchorage Center
Wed 12:53:19 AM 53.5667 168.6833 243° Southwest 460 529 40,000  Level Anchorage Center
Wed 12:56:28 AM 53.3333 168.0333 240° Southwest 471 542 40,000  Level Anchorage Center
Wed 01:02:00 AM 52.9499 166.9599 239° Southwest 471 542 40,000  Level FlightAware Transoceanic
Wed 01:03:00 AM 52.8851 166.7829 239° Southwest 471 542 40,000  Level FlightAware Transoceanic
Wed 01:04:00 AM 52.8200 166.6064 239° Southwest 471 542 40,000  Level FlightAware Transoceanic
Wed 01:05:00 AM 52.7547 166.4304 238° Southwest 471 542 40,000  Level FlightAware Transoceanic
Wed 01:06:00 AM 52.6890 166.2549 238° Southwest 471 542 40,000  Level FlightAware Transoceanic
Wed 01:06:09 AM 52.6833 166.2333 238° Southwest 469 540 40,000  Level Anchorage Center
Wed 01:07:00 AM 52.6232 166.0800 238° Southwest 471 542 40,000  Level FlightAware Transoceanic
Wed 01:08:00 AM 52.5570 165.9056 238° Southwest 471 542 40,000  Level FlightAware Transoceanic
Wed 01:09:00 AM 52.4907 165.7318 238° Southwest 471 542 40,000  Level FlightAware Transoceanic
Wed 01:10:00 AM 52.4240 165.5584 238° Southwest 471 542 40,000  Level FlightAware Transoceanic
Wed 01:11:00 AM 52.3571 165.3856 238° Southwest 471 542 40,000  Level FlightAware Transoceanic
Wed 01:12:00 AM 52.2849 165.1950 237° Southwest 469 540 40,000  Level FlightAware Transoceanic
Wed 01:13:00 AM 52.2177 165.0238 237° Southwest 469 540 40,000  Level FlightAware Transoceanic
Wed 01:14:00 AM 52.1501 164.8531 237° Southwest 469 540 40,000  Level FlightAware Transoceanic
Wed 01:15:00 AM 52.0824 164.6829 237° Southwest 469 540 40,000  Level FlightAware Transoceanic
Wed 01:15:45 AM 52.0167 164.5333 237° Southwest 466 536 40,000  Level Anchorage Center
Wed 01:16:00 AM 52.0144 164.5132 237° Southwest 469 540 40,000  Level FlightAware Transoceanic
Wed 01:17:00 AM 51.9461 164.3441 237° Southwest 469 540 40,000  Level FlightAware Transoceanic
Wed 01:18:00 AM 51.8776 164.1754 237° Southwest 469 540 40,000  Level FlightAware Transoceanic
Wed 01:19:00 AM 51.8088 164.0073 236° Southwest 469 540 40,000  Level FlightAware Transoceanic
Wed 01:20:00 AM 51.7399 163.8397 236° Southwest 469 540 40,000  Level FlightAware Transoceanic
Wed 01:20:56 AM 51.6500 163.6500 236° Southwest 460 529 40,000  Level Anchorage Center
Wed 01:21:00 AM 51.6727 163.6894 236° Southwest 466 536 40,000  Level FlightAware Transoceanic
Wed 01:22:00 AM 51.6032 163.5222 236° Southwest 466 536 40,000  Level FlightAware Transoceanic
Wed 01:23:00 AM 51.5335 163.3554 236° Southwest 466 536 40,000  Level FlightAware Transoceanic
Wed 01:24:00 AM 51.4635 163.1892 236° Southwest 466 536 40,000  Level FlightAware Transoceanic
Wed 01:25:00 AM 51.3933 163.0235 236° Southwest 466 536 40,000  Level FlightAware Transoceanic
Wed 01:25:20 AM 51.3333 162.9000 236° Southwest 463 533 40,000  Level Anchorage Center
Wed 01:26:00 AM 51.3228 162.8583 236° Southwest 466 536 40,000  Level FlightAware Transoceanic
Wed 01:27:00 AM 51.2181 162.6260 236° Southwest 460 529 40,000  Level FlightAware Transoceanic
Wed 01:28:00 AM 51.1452 162.4572 235° Southwest 460 529 40,000  Level FlightAware Transoceanic
Wed 01:29:00 AM 51.0721 162.2890 235° Southwest 460 529 40,000  Level FlightAware Transoceanic
Wed 01:30:00 AM 50.9988 162.1213 235° Southwest 460 529 40,000  Level FlightAware Transoceanic
Wed 01:31:00 AM 50.9032 161.9076 235° Southwest 463 533 40,000  Level FlightAware Transoceanic
Wed 01:32:00 AM 50.8307 161.7440 235° Southwest 463 533 40,000  Level FlightAware Transoceanic
Wed 01:33:00 AM 50.7580 161.5809 235° Southwest 463 533 40,000  Level FlightAware Transoceanic
Wed 01:34:00 AM 50.6851 161.4183 235° Southwest 463 533 40,000  Level FlightAware Transoceanic
Wed 01:34:57 AM 50.6333 161.3167 235° Southwest 453 521 40,000  Level Anchorage Center
Wed 01:35:00 AM 50.6119 161.2562 234° Southwest 463 533 40,000  Level FlightAware Transoceanic
Wed 01:36:00 AM 50.5385 161.0946 234° Southwest 463 533 40,000  Level FlightAware Transoceanic
Wed 01:37:00 AM 50.4649 160.9335 234° Southwest 463 533 40,000  Level FlightAware Transoceanic
Wed 01:38:00 AM 50.3910 160.7729 234° Southwest 463 533 40,000  Level FlightAware Transoceanic
Wed 01:39:00 AM 50.3170 160.6128 234° Southwest 463 533 40,000  Level FlightAware Transoceanic
Wed 01:40:00 AM 50.2427 160.4532 234° Southwest 463 533 40,000  Level FlightAware Transoceanic
Wed 01:40:51 AM 50.2000 160.3833 234° Southwest 453 521 40,000  Level Anchorage Center
Wed 01:41:00 AM 50.1791 160.3239 234° Southwest 453 521 40,000  Level FlightAware Transoceanic
Wed 01:42:00 AM 50.1026 160.1603 234° Southwest 453 521 40,000  Level FlightAware Transoceanic
Wed 01:43:00 AM 50.0259 159.9972 234° Southwest 453 521 40,000  Level FlightAware Transoceanic
Wed 01:44:00 AM 49.9489 159.8346 234° Southwest 453 521 40,000  Level FlightAware Transoceanic
Wed 01:44:33 AM 49.9333 159.7833 232° Southwest 459 528 40,000  Level Anchorage Center
Wed 01:45:00 AM 49.8717 159.6726 233° Southwest 453 521 40,000  Level FlightAware Transoceanic
Wed 01:46:00 AM 49.7943 159.5110 233° Southwest 453 521 40,000  Level FlightAware Transoceanic
Wed 01:47:00 AM 49.7167 159.3500 233° Southwest 453 521 40,000  Level FlightAware Transoceanic
Wed 01:48:00 AM 49.6445 159.2026 233° Southwest 453 521 40,000  Level FlightAware Transoceanic
Wed 01:49:00 AM 49.5721 159.0556 233° Southwest 453 521 40,000  Level FlightAware Transoceanic
Wed 01:50:00 AM 49.4995 158.9090 233° Southwest 459 528 40,000  Level FlightAware Transoceanic
Wed 01:51:00 AM 49.4267 158.7629 232° Southwest 459 528 40,000  Level FlightAware Transoceanic
Wed 01:52:00 AM 49.3538 158.6172 232° Southwest 459 528 40,000  Level FlightAware Transoceanic
Wed 01:53:00 AM 49.2806 158.4719 232° Southwest 459 528 40,000  Level FlightAware Transoceanic
Wed 01:54:00 AM 49.2073 158.3271 232° Southwest 459 528 40,000  Level FlightAware Transoceanic
Wed 01:55:00 AM 49.1338 158.1827 232° Southwest 459 528 40,000  Level FlightAware Transoceanic
Wed 01:56:00 AM 49.0601 158.0387 232° Southwest 459 528 40,000  Level FlightAware Transoceanic
Wed 01:57:00 AM 48.9863 157.8952 232° Southwest 459 528 40,000  Level FlightAware Transoceanic
Wed 01:58:00 AM 48.9123 157.7520 232° Southwest 459 528 40,000  Level FlightAware Transoceanic
Wed 01:59:00 AM 48.8381 157.6093 232° Southwest 459 528 40,000  Level FlightAware Transoceanic
Wed 02:00:00 AM 48.7637 157.4671 232° Southwest 459 528 40,000  Level FlightAware Transoceanic
Wed 02:01:00 AM 48.6891 157.3252 231° Southwest 459 528 40,000  Level FlightAware Transoceanic
Wed 02:02:00 AM 48.6144 157.1838 231° Southwest 459 528 40,000  Level FlightAware Transoceanic
Wed 02:03:00 AM 48.5395 157.0428 231° Southwest 459 528 40,000  Level FlightAware Transoceanic
Wed 02:04:00 AM 48.4644 156.9022 231° Southwest 459 528 40,000  Level FlightAware Transoceanic
Wed 02:05:00 AM 48.3891 156.7620 231° Southwest 459 528 40,000  Level FlightAware Transoceanic
Wed 02:06:00 AM 48.3137 156.6222 231° Southwest 459 528 40,000  Level FlightAware Transoceanic
Wed 02:07:00 AM 48.2381 156.4829 231° Southwest 459 528 40,000  Level FlightAware Transoceanic
Wed 02:08:00 AM 48.1624 156.3439 231° Southwest 459 528 40,000  Level FlightAware Transoceanic
Wed 02:09:00 AM 48.0865 156.2054 231° Southwest 459 528 40,000  Level FlightAware Transoceanic
Wed 02:10:00 AM 48.0104 156.0673 230° Southwest 459 528 40,000  Level FlightAware Transoceanic
Wed 02:11:00 AM 47.9341 155.9296 230° Southwest 459 528 40,000  Level FlightAware Transoceanic
Wed 02:12:00 AM 47.8577 155.7923 230° Southwest 459 528 40,000  Level FlightAware Transoceanic
Wed 02:13:00 AM 47.7811 155.6553 230° Southwest 459 528 40,000  Level FlightAware Transoceanic
Wed 02:14:00 AM 47.7044 155.5188 230° Southwest 459 528 40,000  Level FlightAware Transoceanic
Wed 02:15:00 AM 47.6275 155.3828 230° Southwest 459 528 40,000  Level FlightAware Transoceanic
Wed 02:16:00 AM 47.5504 155.2471 230° Southwest 459 528 40,000  Level FlightAware Transoceanic
Wed 02:17:00 AM 47.4732 155.1117 230° Southwest 459 528 40,000  Level FlightAware Transoceanic
Wed 02:18:00 AM 47.3958 154.9768 230° Southwest 459 528 40,000  Level FlightAware Transoceanic
Wed 02:19:00 AM 47.3183 154.8423 230° Southwest 459 528 40,000  Level FlightAware Transoceanic
Wed 02:20:00 AM 47.2406 154.7082 229° Southwest 459 528 40,000  Level FlightAware Transoceanic
Wed 02:21:00 AM 47.1627 154.5745 229° Southwest 459 528 40,000  Level FlightAware Transoceanic
Wed 02:22:00 AM 47.0847 154.4412 229° Southwest 459 528 40,000  Level FlightAware Transoceanic
Wed 02:23:00 AM 47.0066 154.3082 229° Southwest 459 528 40,000  Level FlightAware Transoceanic
Wed 02:24:00 AM 46.9283 154.1757 229° Southwest 459 528 40,000  Level FlightAware Transoceanic
Wed 02:25:00 AM 46.8498 154.0435 229° Southwest 459 528 40,000  Level FlightAware Transoceanic
Wed 02:26:00 AM 46.7712 153.9117 229° Southwest 459 528 40,000  Level FlightAware Transoceanic
Wed 02:27:00 AM 46.6924 153.7803 229° Southwest 459 528 40,000  Level FlightAware Transoceanic
Wed 02:28:00 AM 46.6135 153.6494 229° Southwest 459 528 40,000  Level FlightAware Transoceanic
Wed 02:29:00 AM 46.5344 153.5187 229° Southwest 459 528 40,000  Level FlightAware Transoceanic
Wed 02:30:00 AM 46.4552 153.3885 228° Southwest 459 528 40,000  Level FlightAware Transoceanic
Wed 02:31:00 AM 46.3758 153.2586 228° Southwest 459 528 40,000  Level FlightAware Transoceanic
Wed 02:32:00 AM 46.2963 153.1291 228° Southwest 459 528 40,000  Level FlightAware Transoceanic
Wed 02:33:00 AM 46.2126 152.9934 228° Southwest  Level FlightAware Approximate
Wed 02:34:00 AM 46.2085 152.9869 228° Southwest  Level FlightAware Approximate
Wed 02:35:00 AM 46.1241 152.8523 228° Southwest  Level FlightAware Approximate
Wed 02:36:00 AM 46.0395 152.7182 228° Southwest  Level FlightAware Approximate
Wed 02:37:00 AM 45.9548 152.5844 228° Southwest  Level FlightAware Approximate
Wed 02:38:00 AM 45.8699 152.4511 228° Southwest  Level FlightAware Approximate
Wed 02:39:00 AM 45.7849 152.3181 227° Southwest  Level FlightAware Approximate
Wed 02:40:00 AM 45.6997 152.1856 227° Southwest  Level FlightAware Approximate
Wed 02:41:00 AM 45.6143 152.0535 227° Southwest  Level FlightAware Approximate
Wed 02:42:00 AM 45.5289 151.9217 227° Southwest  Level FlightAware Approximate
Wed 02:43:00 AM 45.4432 151.7904 227° Southwest  Level FlightAware Approximate
Wed 02:44:00 AM 45.3574 151.6595 227° Southwest  Level FlightAware Approximate
Wed 02:45:00 AM 45.2715 151.5289 227° Southwest  Level FlightAware Approximate
Wed 02:46:00 AM 45.1854 151.3988 227° Southwest  Level FlightAware Approximate
Wed 02:47:00 AM 45.0992 151.2690 227° Southwest  Level FlightAware Approximate
Wed 02:48:00 AM 45.0128 151.1397 227° Southwest  Level FlightAware Approximate
Wed 02:49:00 AM 44.9262 151.0107 227° Southwest  Level FlightAware Approximate
Wed 02:50:00 AM 44.8396 150.8821 226° Southwest  Level FlightAware Approximate
Wed 02:51:00 AM 44.7528 150.7539 226° Southwest  Level FlightAware Approximate
Wed 02:52:00 AM 44.6658 150.6261 226° Southwest  Level FlightAware Approximate
Wed 02:53:00 AM 44.5787 150.4987 226° Southwest  Level FlightAware Approximate
Wed 02:54:00 AM 44.4915 150.3717 226° Southwest  Level FlightAware Approximate
Wed 02:55:00 AM 44.4041 150.2450 226° Southwest  Level FlightAware Approximate
Wed 02:56:00 AM 44.3166 150.1187 226° Southwest  Level FlightAware Approximate
Wed 02:57:00 AM 44.2289 149.9928 226° Southwest  Level FlightAware Approximate
Wed 02:58:00 AM 44.1411 149.8673 226° Southwest  Level FlightAware Approximate
Wed 02:59:00 AM 44.0532 149.7421 226° Southwest  Level FlightAware Approximate
Wed 03:00:00 AM 43.9651 149.6173 226° Southwest  Level FlightAware Approximate
Wed 03:01:00 AM 43.8769 149.4929 225° Southwest  Level FlightAware Approximate
Wed 03:02:00 AM 43.7885 149.3689 225° Southwest  Level FlightAware Approximate
Wed 03:03:00 AM 43.7001 149.2452 225° Southwest  Level FlightAware Approximate
Wed 03:04:00 AM 43.6114 149.1219 225° Southwest  Level FlightAware Approximate
Wed 03:05:00 AM 43.5227 148.9989 225° Southwest  Level FlightAware Approximate
Wed 03:05:10 AM 43.4260 148.8660 225° Southwest 420 483 40,000  Level FlightAware ADS-B
Wed 03:06:00 AM 43.4338 148.8763 225° Southwest  Level FlightAware Approximate
Wed 03:06:10 AM 43.3430 148.7520 225° Southwest 421 484 40,000  Level FlightAware ADS-B
Wed 03:06:50 AM 43.2870 148.6750 225° Southwest 420 483 40,000  Level FlightAware ADS-B
Wed 03:07:40 AM 43.2170 148.5800 225° Southwest 420 483 40,000  Level FlightAware ADS-B
Wed 03:08:10 AM 43.1760 148.5230 225° Southwest 420 483 40,000  Level FlightAware ADS-B
Wed 03:09:15 AM 43.0840 148.3990 225° Southwest 420 483 40,000  Level FlightAware ADS-B
Wed 03:10:15 AM 43.0010 148.2860 225° Southwest 425 489 40,000  Level FlightAware ADS-B
Wed 03:10:45 AM 42.9590 148.2300 224° Southwest 417 480 40,000  Level FlightAware ADS-B
Wed 03:11:40 AM 42.8840 148.1290 225° Southwest 415 478 40,000  Level FlightAware ADS-B
Wed 03:12:50 AM 42.7860 147.9980 224° Southwest 416 479 40,000  Level FlightAware ADS-B
Wed 03:13:20 AM 42.7440 147.9420 224° Southwest 415 478 40,000  Level FlightAware ADS-B
Wed 03:14:00 AM 42.6880 147.8670 225° Southwest 412 474 40,000  Level FlightAware ADS-B
Wed 03:14:30 AM 42.6490 147.8160 224° Southwest 410 472 40,000  Level FlightAware ADS-B
Wed 03:15:00 AM 42.6050 147.7580 224° Southwest 411 473 40,000  Level FlightAware ADS-B
Wed 03:15:40 AM 42.5500 147.6840 225° Southwest 411 473 40,000  Level FlightAware ADS-B
Wed 03:16:20 AM 42.4940 147.6110 224° Southwest 414 476 40,000  Level FlightAware ADS-B
Wed 03:17:00 AM 42.4390 147.5380 224° Southwest 414 476 40,000  Level FlightAware ADS-B
Wed 03:17:40 AM 42.3830 147.4650 224° Southwest 413 475 40,000  Level FlightAware ADS-B
Wed 03:18:25 AM 42.3250 147.3890 224° Southwest 412 474 40,000  Level FlightAware ADS-B
Wed 03:19:05 AM 42.2650 147.3110 224° Southwest 412 474 40,000  Level FlightAware ADS-B
Wed 03:19:45 AM 42.2100 147.2390 224° Southwest 412 474 40,000  Level FlightAware ADS-B
Wed 03:20:15 AM 42.1690 147.1850 224° Southwest 413 475 40,000  Level FlightAware ADS-B
Wed 03:21:10 AM 42.0920 147.0850 224° Southwest 412 474 40,000  Level FlightAware ADS-B
Wed 03:22:05 AM 42.0150 146.9860 224° Southwest 419 482 40,000  Level FlightAware ADS-B
Wed 03:22:30 AM 41.9800 146.9410 224° Southwest 420 483 40,000  Level FlightAware ADS-B
Wed 03:23:20 AM 41.9100 146.8510 224° Southwest 420 483 40,000  Level FlightAware ADS-B
Wed 03:23:55 AM 41.8610 146.7880 224° Southwest 421 484 40,000  Level FlightAware ADS-B
Wed 03:24:25 AM 41.8180 146.7340 223° Southwest 421 484 40,000  Level FlightAware ADS-B
Wed 03:25:00 AM 41.7690 146.6700 224° Southwest 419 482 40,000  Level FlightAware ADS-B
Wed 03:25:30 AM 41.7270 146.6170 223° Southwest 420 483 40,000  Level FlightAware ADS-B
Wed 03:26:05 AM 41.6780 146.5540 224° Southwest 421 484 40,000  Level FlightAware ADS-B
Wed 03:26:35 AM 41.6350 146.5000 223° Southwest 420 483 40,000  Level FlightAware ADS-B
Wed 03:27:10 AM 41.5860 146.4380 223° Southwest 419 482 40,000  Level FlightAware ADS-B
Wed 03:27:50 AM 41.5300 146.3660 224° Southwest 420 483 40,000  Level FlightAware ADS-B
Wed 03:28:45 AM 41.4530 146.2690 223° Southwest 420 483 40,000  Level FlightAware ADS-B
Wed 03:29:25 AM 41.3960 146.1970 223° Southwest 420 483 40,000  Level FlightAware ADS-B
Wed 03:30:05 AM 41.3390 146.1260 223° Southwest 420 483 40,000  Level FlightAware ADS-B
Wed 03:30:40 AM 41.2900 146.0640 224° Southwest 422 486 40,000  Level FlightAware ADS-B
Wed 03:31:25 AM 41.2260 145.9850 223° Southwest 422 486 40,000  Level FlightAware ADS-B
Wed 03:32:25 AM 41.1400 145.8780 223° Southwest 423 487 40,000  Level FlightAware ADS-B
Wed 03:33:00 AM 41.0910 145.8170 223° Southwest 420 483 40,000  Level FlightAware ADS-B
Wed 03:33:30 AM 41.0480 145.7640 223° Southwest 420 483 40,000  Level FlightAware ADS-B
Wed 03:34:10 AM 40.9920 145.6940 223° Southwest 420 483 40,000  Level FlightAware ADS-B
Wed 03:34:50 AM 40.9350 145.6240 223° Southwest 418 481 40,000  Level FlightAware ADS-B
Wed 03:36:00 AM 40.8350 145.5020 223° Southwest 418 481 40,000  Level FlightAware ADS-B
Wed 03:36:20 AM 40.8100 145.4710 223° Southwest 418 481 40,000  Level FlightAware ADS-B
Wed 03:36:55 AM 40.7580 145.4060 223° Southwest 421 484 40,000  Level FlightAware ADS-B
Wed 03:37:45 AM 40.6860 145.3190 223° Southwest 421 484 40,000  Level FlightAware ADS-B
Wed 03:38:35 AM 40.6170 145.2350 223° Southwest 421 484 40,000  Level FlightAware ADS-B
Wed 03:39:05 AM 40.5720 145.1810 222° Southwest 421 484 40,000  Level FlightAware ADS-B
Wed 03:40:10 AM 40.4800 145.0690 223° Southwest 416 479 40,000  Level FlightAware ADS-B
Wed 03:40:45 AM 40.4280 145.0070 222° Southwest 420 483 40,000  Level FlightAware ADS-B
Wed 03:41:35 AM 40.3570 144.9210 223° Southwest 416 479 40,000  Level FlightAware ADS-B
Wed 03:41:56 AM 40.3330 144.8920 223° Southwest 415 478 40,000  Level FlightAware ADS-B
Wed 03:42:46 AM 40.2720 144.8200 222° Southwest 415 478 40,000  Level FlightAware ADS-B
Wed 03:43:22 AM 40.2280 144.7680 222° Southwest 415 478 40,000  Level FlightAware ADS-B
Wed 03:43:58 AM 40.1850 144.7170 222° Southwest 415 478 40,000  Level FlightAware ADS-B
Wed 03:44:47 AM 40.1250 144.6470 222° Southwest 415 478 40,000  Level FlightAware ADS-B
Wed 03:45:24 AM 40.0800 144.5940 222° Southwest 415 478 40,000  Level FlightAware ADS-B
Wed 03:45:48 AM 40.0510 144.5600 222° Southwest 415 478 40,000  Level FlightAware ADS-B
Wed 03:46:24 AM 40.0080 144.5090 222° Southwest 415 478 40,000  Level FlightAware ADS-B
Wed 03:47:36 AM 39.9200 144.4060 222° Southwest 415 478 40,000  Level FlightAware ADS-B
Wed 03:48:01 AM 39.8900 144.3700 223° Southwest 415 478 40,000  Level FlightAware ADS-B
Wed 03:48:37 AM 39.8460 144.3190 222° Southwest 415 478 40,000  Level FlightAware ADS-B
Wed 03:49:26 AM 39.7870 144.2500 222° Southwest 415 478 40,000  Level FlightAware ADS-B
Wed 03:50:31 AM 39.5930 144.0160 223° Southwest 429 494 40,000  Level FlightAware ADS-B
Wed 03:51:10 AM 39.5280 143.9410 222° Southwest 429 494 40,000  Level FlightAware ADS-B
Wed 03:51:45 AM 39.4750 143.8800 222° Southwest 429 494 40,000  Level FlightAware ADS-B
Wed 03:52:25 AM 39.4170 143.8130 222° Southwest 429 494 40,000  Level FlightAware ADS-B
Wed 03:52:55 AM 39.3720 143.7600 222° Southwest 431 496 40,000  Level FlightAware ADS-B
Wed 03:54:01 AM 39.2750 143.6490 222° Southwest 434 499 40,000  Level FlightAware ADS-B
Wed 03:54:35 AM 39.2130 143.6020 210° Southwest 445 512 40,000  Level FlightAware ADS-B
Wed 03:55:10 AM 39.1430 143.5720 198° South 458 527 40,000  Level FlightAware ADS-B
Wed 03:55:45 AM 39.0720 143.5430 198° South 457 526 40,000  Level FlightAware ADS-B
Wed 03:56:40 AM 38.9610 143.4990 197° South 455 524 40,000  Level FlightAware ADS-B
Wed 03:57:06 AM 38.9110 143.4790 197° South 456 525 40,000  Level FlightAware ADS-B
Wed 03:57:40 AM 38.8410 143.4500 198° South 445 512 40,000  Level FlightAware ADS-B
Wed 03:58:11 AM 38.7820 143.4220 200° South 448 516 40,000  Level FlightAware ADS-B
Wed 03:58:44 AM 38.7150 143.3900 200° South 446 513 40,000  Level FlightAware ADS-B
Wed 03:59:50 AM 38.5880 143.3290 201° Southwest 445 512 40,000  Level FlightAware ADS-B
Wed 04:00:50 AM 38.4890 143.2820 200° South 444 511 40,000  Level FlightAware ADS-B
Wed 04:01:18 AM 38.4230 143.2490 201° Southwest 431 496 40,000  Level FlightAware ADS-B
Wed 04:01:55 AM 38.3640 143.2220 200° South 431 496 40,000  Level FlightAware ADS-B
Wed 04:02:30 AM 38.2830 143.1820 201° Southwest 443 510 40,000  Level FlightAware ADS-B
Wed 04:03:10 AM 38.2060 143.1460 200° South 443 510 40,000  Level FlightAware ADS-B
Wed 04:03:45 AM 38.1380 143.1140 200° South 433 498 40,000  Level FlightAware ADS-B
Wed 04:04:24 AM 38.0620 143.0770 201° Southwest 443 510 40,000  Level FlightAware ADS-B
Wed 04:05:00 AM 37.9950 143.0460 200° South 443 510 40,000  Level FlightAware ADS-B
Wed 04:05:45 AM 37.9110 143.0060 201° Southwest 433 498 40,000  Level FlightAware ADS-B
Wed 04:06:30 AM 37.8230 142.9650 200° South 433 498 40,000  Level FlightAware ADS-B
Wed 04:07:10 AM 37.7460 142.9290 200° South 432 497 40,000  Level FlightAware ADS-B
Wed 04:07:39 AM 37.6890 142.9020 201° Southwest 432 497 40,000  Level FlightAware ADS-B
Wed 04:08:40 AM 37.5740 142.8480 200° South 443 510 40,000  Level FlightAware ADS-B
Wed 04:09:50 AM 37.4400 142.7860 200° South 444 511 40,000  Level FlightAware ADS-B
Wed 04:10:45 AM 37.3340 142.7370 200° South 442 509 40,000  Level FlightAware ADS-B
Wed 04:11:55 AM 37.1990 142.6740 200° South 445 512 40,000  Level FlightAware ADS-B
Wed 04:12:25 AM 37.1400 142.6470 200° South 446 513 40,000  Level FlightAware ADS-B
Wed 04:13:00 AM 37.0730 142.6160 200° South 446 513 40,000  Level FlightAware ADS-B
Wed 04:13:30 AM 37.0150 142.5890 200° South 447 514 40,000  Level FlightAware ADS-B
Wed 04:14:05 AM 36.9460 142.5580 200° South 446 513 40,000  Level FlightAware ADS-B
Wed 04:14:54 AM 36.8490 142.5140 200° South 444 511 40,000  Level FlightAware ADS-B
Wed 04:15:35 AM 36.7730 142.4780 201° Southwest 445 512 40,000 -74 Level FlightAware ADS-B
Wed 04:16:15 AM 36.6950 142.4430 200° South 443 510 39,900 -185 Descending FlightAware ADS-B
Wed 04:16:40 AM 36.6470 142.4210 200° South 430 495 39,800 -764 Descending FlightAware ADS-B
Wed 04:17:10 AM 36.5900 142.3950 200° South 427 491 39,200 -1,371 Descending FlightAware ADS-B
Wed 04:17:50 AM 36.5140 142.3610 200° South 429 494 38,200 -1,371 Descending FlightAware ADS-B
Wed 04:18:20 AM 36.4570 142.3350 200° South 428 493 37,600 -1,200 Descending FlightAware ADS-B
Wed 04:18:50 AM 36.4010 142.3100 200° South 426 490 37,000 -1,200 Descending FlightAware ADS-B
Wed 04:19:25 AM 36.3360 142.2810 200° South 430 495 36,300 -1,352 Descending FlightAware ADS-B
Wed 04:20:01 AM 36.2680 142.2500 200° South 425 489 35,400 -1,840 Descending FlightAware ADS-B
Wed 04:20:40 AM 36.1910 142.2150 200° South 442 509 34,000 -2,047 Descending FlightAware ADS-B
Wed 04:21:26 AM 36.1090 142.1680 205° Southwest 432 497 32,500 -1,481 Descending FlightAware ADS-B
Wed 04:22:01 AM 36.0590 142.1110 223° Southwest 417 480 32,000 -1,292 Descending FlightAware ADS-B
Wed 04:22:31 AM 36.0180 142.0590 226° Southwest 422 486 31,100 -1,840 Descending FlightAware ADS-B
Wed 04:23:16 AM 35.9560 141.9810 226° Southwest 423 487 29,700 -1,943 Descending FlightAware ADS-B
Wed 04:24:16 AM 35.8730 141.8750 226° Southwest 434 499 27,700 -1,835 Descending FlightAware ADS-B
Wed 04:24:41 AM 35.8410 141.8330 227° Southwest 421 484 27,100 -3,257 Descending FlightAware ADS-B
Wed 04:25:26 AM 35.8200 141.7290 256° West 403 464 23,900 -3,933 Descending FlightAware ADS-B
Wed 04:26:11 AM 35.8240 141.6310 273° West 387 445 21,200 -3,467 Descending FlightAware ADS-B
Wed 04:26:56 AM 35.8260 141.5390 272° West 368 423 18,700 -3,195 Descending FlightAware ADS-B
Wed 04:27:28 AM 35.8290 141.4730 273° West 371 427 17,100 -2,961 Descending FlightAware ADS-B
Wed 04:28:13 AM 35.8330 141.3740 273° West 363 418 14,900 -2,960 Descending FlightAware ADS-B
Wed 04:28:43 AM 35.8350 141.3120 272° West 365 420 13,400 -2,800 Descending FlightAware ADS-B
Wed 04:29:13 AM 35.8360 141.2490 271° West 367 422 12,100 -1,971 Descending FlightAware ADS-B
Wed 04:29:53 AM 35.8400 141.1700 274° West 346 398 11,100 -947 Descending FlightAware ADS-B
Wed 04:30:48 AM 35.8430 141.0680 272° West 297 342 10,600 -635 Descending FlightAware ADS-B
Wed 04:31:18 AM 35.8440 141.0180 271° West 278 320 10,200 -1,543 Descending FlightAware ADS-B
Wed 04:31:58 AM 35.8460 140.9580 272° West 257 296 8,800 -1,920 Descending FlightAware ADS-B
Wed 04:32:33 AM 35.8480 140.9090 273° West 257 296 7,800 -1,500 Descending FlightAware ADS-B
Wed 04:32:58 AM 35.8490 140.8720 272° West 254 292 7,300 -1,108 Descending FlightAware ADS-B
Wed 04:33:38 AM 35.8600 140.8160 284° West 243 280 6,600 -988 Descending FlightAware ADS-B
Wed 04:34:23 AM 35.8790 140.7590 292° West 240 276 5,900 -525 Descending FlightAware ADS-B
Wed 04:34:58 AM 35.8950 140.7130 293° West 246 283 5,900  Level FlightAware ADS-B
Wed 04:35:23 AM 35.9070 140.6800 294° West 246 283 5,900 -400 Level FlightAware ADS-B
Wed 04:35:58 AM 35.9220 140.6360 293° West 245 282 5,500 -1,017 Descending FlightAware ADS-B
Wed 04:36:22 AM 35.9300 140.6040 287° West 249 287 4,900 -1,424 Descending FlightAware ADS-B
Wed 04:36:57 AM 35.9330 140.5540 274° West 255 293 4,100 -800 Descending FlightAware ADS-B
Wed 04:37:37 AM 35.9370 140.4970 275° West 241 277 3,900 -169 Descending FlightAware ADS-B
Wed 04:38:08 AM 35.9390 140.4560 273° West 241 277 3,900 -200 Level FlightAware ADS-B
Wed 04:38:37 AM 35.9410 140.4160 274° West 223 257 3,700 -973 Descending FlightAware ADS-B
Wed 04:39:22 AM 35.9450 140.3630 275° West 195 224 2,700 -1,200 Descending FlightAware ADS-B
Wed 04:39:37 AM 35.9450 140.3500 270° West 194 223 2,500 -923 Descending FlightAware ADS-B
Wed 04:40:27 AM 35.9150 140.3150 223° Southwest 175 201 1,700 -539 Descending FlightAware ADS-B
Wed 04:41:06 AM 35.8860 140.3200 172° South 165 190 1,700 -324 Level FlightAware ADS-B
Wed 04:41:41 AM 35.8630 140.3360 151° Southeast 152 175 1,300 -706 Descending FlightAware ADS-B
Wed 04:42:14 AM 35.8440 140.3500 149° Southeast 139 160 900 -727 Descending FlightAware ADS-B
Wed 04:42:47 AM 35.8250 140.3640 149° Southeast 138 159 500 -676 Descending FlightAware ADS-B
Wed 04:43:25 AM 35.8050 140.3780 150° Southeast 143 165 100 -369 Descending FlightAware ADS-B
Wed 04:43:52 AM 35.7920 140.3880 148° Southeast 143 165 100  Level FlightAware ADS-B

Login

Don't have an account? Register now (free) for customized features, flight alerts, and more!